This is the latest recevied weather packets stored in our database for station/object IR9AK-10. If no packets are shown the sender has not sent any weather packets the latest 10 day(s).
| Time | Temp. | Humidity | Pressure | Rain* | Wind** | Luminosity | Snow |
|---|---|---|---|---|---|---|---|
| 1777910600 | 20.56° C | 57% | 1062.9 hPa | - | - | - | - |
| 1777910000 | 20.56° C | 55% | 1062.9 hPa | - | - | - | - |
| 1777909401 | 20.56° C | 53% | 1063.1 hPa | - | - | - | - |
| 1777908802 | 20.56° C | 54% | 1063.1 hPa | - | - | - | - |
| 1777908202 | 21.11° C | 53% | 1063 hPa | - | - | - | - |
| 1777907603 | 21.67° C | 52% | 1063.1 hPa | - | - | - | - |
| 1777907004 | 22.22° C | 48% | 1063.2 hPa | - | - | - | - |
| 1777906405 | 21.67° C | 50% | 1063.2 hPa | - | - | - | - |
| 1777905806 | 22.78° C | 46% | 1063.3 hPa | - | - | - | - |
| 1777905207 | 23.89° C | 39% | 1063.2 hPa | - | - | - | - |
| 1777904607 | 22.78° C | 45% | 1063.2 hPa | - | - | - | - |
| 1777904009 | 21.67° C | 44% | 1063.3 hPa | - | - | - | - |
| 1777903409 | 21.11° C | 44% | 1063.5 hPa | - | - | - | - |
| 1777902810 | 21.11° C | 44% | 1063.7 hPa | - | - | - | - |
| 1777902211 | 20.56° C | 51% | 1063.9 hPa | - | - | - | - |
| 1777901613 | 20.56° C | 44% | 1064 hPa | - | - | - | - |
| 1777901014 | 20.56° C | 43% | 1064.1 hPa | - | - | - | - |
| 1777900415 | 20.56° C | 45% | 1064.3 hPa | - | - | - | - |
| 1777899816 | 20.56° C | 46% | 1064.4 hPa | - | - | - | - |
| 1777899217 | 20.56° C | 48% | 1064.5 hPa | - | - | - | - |
| 1777898618 | 20.56° C | 45% | 1064.4 hPa | - | - | - | - |
| 1777898018 | 20.56° C | 48% | 1064.6 hPa | - | - | - | - |
| 1777897419 | 20.56° C | 53% | 1064.6 hPa | - | - | - | - |
| 1777896820 | 20.56° C | 56% | 1064.6 hPa | - | - | - | - |
| 1777896221 | 20.56° C | 51% | 1064.7 hPa | - | - | - | - |
* Rain since midnight (hover to see other rain measurements)
** Current wind speed in m/s (hover to see current wind gust speed)